createdAt,value
2023-10-20T00:01:43.882Z,41.41
2023-10-20T00:02:35.110Z,37.87
2023-10-20T00:03:42.722Z,35.93
2023-10-20T00:04:35.106Z,33.84
2023-10-20T00:05:43.929Z,33.84
2023-10-20T00:11:02.623Z,41.41
2023-10-20T00:17:36.140Z,41.25
2023-10-20T00:18:45.175Z,40.12
2023-10-20T00:22:52.177Z,43.99
2023-10-20T00:24:00.901Z,41.73
2023-10-20T00:25:27.008Z,36.58
2023-10-20T00:25:53.603Z,41.89
2023-10-20T00:30:42.270Z,40.77
2023-10-20T00:31:34.687Z,38.67
2023-10-20T00:33:10.684Z,41.73
2023-10-20T00:33:35.880Z,41.57
2023-10-20T00:34:35.946Z,35.45
2023-10-20T00:36:08.301Z,35.77
2023-10-20T00:37:08.332Z,48.66
2023-10-20T00:38:09.628Z,38.03
2023-10-20T00:38:35.894Z,46.25
2023-10-20T00:39:35.782Z,34.80
2023-10-20T00:41:08.230Z,36.25
2023-10-20T00:42:08.240Z,34.64
2023-10-20T00:42:35.899Z,36.58
2023-10-20T00:47:00.714Z,40.12
2023-10-20T00:48:00.675Z,43.18
2023-10-20T00:54:33.342Z,38.35
2023-10-20T00:56:06.963Z,36.42
2023-10-20T00:57:08.037Z,43.83
2023-10-20T00:57:34.742Z,53.66
2023-10-20T00:58:34.566Z,39.16
2023-10-20T01:00:06.878Z,36.09
2023-10-20T01:00:34.520Z,41.73
2023-10-20T01:02:08.218Z,43.34
2023-10-20T01:02:34.666Z,38.35
2023-10-20T01:04:07.019Z,36.25
2023-10-20T01:04:34.607Z,44.63
2023-10-20T01:05:34.546Z,35.29
2023-10-20T01:06:34.267Z,37.87
2023-10-20T01:08:06.779Z,39.16
2023-10-20T01:12:26.618Z,47.70
2023-10-20T01:13:26.576Z,44.47
2023-10-20T01:14:20.275Z,43.83
2023-10-20T01:15:20.333Z,45.28
2023-10-20T01:16:20.240Z,44.63
2023-10-20T01:17:20.073Z,44.79
2023-10-20T01:18:20.030Z,45.28
2023-10-20T01:19:20.001Z,46.73
2023-10-20T01:20:20.048Z,43.83
2023-10-20T01:21:20.001Z,44.31
2023-10-20T01:22:19.976Z,45.60
2023-10-20T01:23:20.016Z,48.66
2023-10-20T01:24:19.948Z,46.89
2023-10-20T01:25:19.931Z,47.37
2023-10-20T01:26:20.002Z,48.98
2023-10-20T01:27:19.937Z,48.50
2023-10-20T01:28:20.609Z,49.63
2023-10-20T01:29:19.939Z,49.95
2023-10-20T01:30:19.928Z,50.27
2023-10-20T01:31:52.497Z,51.40
2023-10-20T01:32:20.331Z,53.17
2023-10-20T01:33:53.758Z,53.01
2023-10-20T01:34:20.308Z,53.50
2023-10-20T01:35:20.190Z,52.21
2023-10-20T01:36:19.962Z,53.01
2023-10-20T01:37:19.896Z,53.50
2023-10-20T01:38:19.894Z,53.82
2023-10-20T01:39:19.819Z,53.66
2023-10-20T01:40:19.805Z,53.66
2023-10-20T01:41:19.851Z,52.85
2023-10-20T01:42:19.810Z,55.59
2023-10-20T01:43:19.824Z,53.82
2023-10-20T01:44:19.779Z,53.82
2023-10-20T01:45:19.798Z,54.30
2023-10-20T01:46:19.824Z,53.82
2023-10-20T01:47:19.775Z,53.82
2023-10-20T01:48:19.756Z,53.50
2023-10-20T01:49:19.756Z,53.17
2023-10-20T01:50:19.759Z,52.69
2023-10-20T01:51:19.788Z,52.37
2023-10-20T01:52:19.771Z,53.17
2023-10-20T01:53:19.785Z,53.17
2023-10-20T01:54:19.730Z,52.85
2023-10-20T01:55:19.744Z,53.50
2023-10-20T01:56:19.770Z,53.17
2023-10-20T01:57:19.699Z,53.33
2023-10-20T01:58:19.647Z,52.85
2023-10-20T01:59:19.686Z,53.01
2023-10-20T02:00:19.685Z,53.17
2023-10-20T02:01:19.828Z,52.69
2023-10-20T02:02:19.790Z,52.37
2023-10-20T02:03:52.438Z,54.14
2023-10-20T02:04:19.684Z,51.72
2023-10-20T02:05:19.816Z,53.01
2023-10-20T02:06:19.648Z,50.76
2023-10-20T02:07:19.600Z,50.60
2023-10-20T02:08:19.653Z,50.60
2023-10-20T02:09:19.514Z,49.15
2023-10-20T02:10:19.553Z,51.56
2023-10-20T02:11:19.629Z,48.66
2023-10-20T02:12:19.553Z,48.66
2023-10-20T02:13:19.612Z,48.02
2023-10-20T02:14:19.511Z,48.50
2023-10-20T02:15:19.477Z,48.66
2023-10-20T02:16:19.542Z,48.02
2023-10-20T02:17:19.508Z,50.11
2023-10-20T02:18:19.510Z,48.18
2023-10-20T02:19:52.049Z,48.34
2023-10-20T02:20:19.828Z,46.41
2023-10-20T02:21:21.906Z,45.92
2023-10-20T02:26:01.996Z,48.34
2023-10-20T02:27:01.792Z,47.21
2023-10-20T02:28:01.860Z,46.41
2023-10-20T02:29:01.784Z,46.08
2023-10-20T02:30:01.744Z,47.21
2023-10-20T02:31:02.907Z,49.63
2023-10-20T02:32:02.913Z,45.44
2023-10-20T02:33:02.988Z,45.44
2023-10-20T02:34:02.924Z,53.01
2023-10-20T02:35:03.231Z,46.73
2023-10-20T02:36:02.831Z,45.92
2023-10-20T02:37:02.860Z,45.12
2023-10-20T02:38:02.831Z,46.25
2023-10-20T02:39:02.810Z,45.44
2023-10-20T02:54:11.875Z,45.44
2023-10-20T02:55:11.739Z,42.38
2023-10-20T02:56:11.639Z,41.41
2023-10-20T02:57:11.592Z,42.22
2023-10-20T02:58:11.558Z,46.41
2023-10-20T02:59:11.661Z,42.70
2023-10-20T03:00:11.538Z,41.25
2023-10-20T03:01:44.261Z,42.38
2023-10-20T03:02:11.816Z,48.18
2023-10-20T03:03:11.916Z,46.57
2023-10-20T03:04:44.183Z,46.73
2023-10-20T03:05:11.784Z,44.47
2023-10-20T03:09:53.500Z,46.08
2023-10-20T03:10:53.459Z,45.60
2023-10-20T03:11:53.504Z,42.70
2023-10-20T03:12:54.590Z,43.83
2023-10-20T03:13:54.580Z,49.63
2023-10-20T03:14:54.572Z,46.73
2023-10-20T03:15:54.512Z,46.41
2023-10-20T03:16:54.574Z,48.98
2023-10-20T03:17:54.597Z,50.11
2023-10-20T03:18:54.589Z,48.34
2023-10-20T03:19:54.622Z,45.44
2023-10-20T03:20:54.504Z,48.02
2023-10-20T03:22:28.314Z,48.66
2023-10-20T03:22:54.590Z,53.82
2023-10-20T03:23:54.813Z,48.34
2023-10-20T03:24:54.379Z,48.50
2023-10-20T03:25:54.537Z,46.08
2023-10-20T03:26:54.574Z,47.37
2023-10-20T03:27:54.399Z,47.86
2023-10-20T03:28:54.356Z,49.47
2023-10-20T03:29:54.385Z,53.01
2023-10-20T03:30:54.558Z,52.21
2023-10-20T03:31:54.348Z,51.88
2023-10-20T03:32:54.326Z,51.40
2023-10-20T03:33:54.310Z,52.69
2023-10-20T03:34:54.335Z,49.63
2023-10-20T03:35:54.373Z,50.43
2023-10-20T03:36:54.281Z,50.60
2023-10-20T03:37:54.349Z,49.79
2023-10-20T03:38:54.242Z,45.60
2023-10-20T03:39:54.290Z,47.37
2023-10-20T03:40:54.224Z,51.56
2023-10-20T03:41:54.199Z,47.05
2023-10-20T03:42:54.229Z,46.73
2023-10-20T03:43:54.198Z,50.60
2023-10-20T03:44:54.743Z,54.62
2023-10-20T03:45:54.183Z,53.82
2023-10-20T03:46:54.225Z,53.33
2023-10-20T03:47:54.223Z,48.98
2023-10-20T03:48:54.096Z,52.85
2023-10-20T03:49:54.135Z,49.15
2023-10-20T03:50:54.128Z,50.76
2023-10-20T03:51:54.097Z,53.33
2023-10-20T03:52:54.088Z,54.95
2023-10-20T03:53:54.129Z,57.69
2023-10-20T03:54:54.149Z,58.49
2023-10-20T03:55:54.156Z,59.78
2023-10-20T03:56:54.116Z,60.91
2023-10-20T03:57:54.036Z,60.91
2023-10-20T03:58:54.039Z,59.94
2023-10-20T03:59:54.057Z,59.14
2023-10-20T04:00:54.863Z,57.04
2023-10-20T04:01:54.036Z,56.40
2023-10-20T04:02:54.046Z,55.91
2023-10-20T04:03:54.065Z,55.27
2023-10-20T04:04:55.917Z,56.56
2023-10-20T04:14:10.688Z,53.82
2023-10-20T04:15:10.627Z,52.69
2023-10-20T04:16:11.058Z,53.82
2023-10-20T04:17:19.718Z,53.33
2023-10-20T04:21:08.195Z,51.88
2023-10-20T04:22:00.384Z,50.27
2023-10-20T04:23:00.319Z,48.34
2023-10-20T04:24:07.954Z,50.76
2023-10-20T04:25:01.560Z,53.01
2023-10-20T04:26:02.342Z,53.01
2023-10-20T04:27:01.389Z,52.21
2023-10-20T04:28:02.334Z,53.33
2023-10-20T04:32:13.640Z,50.92
2023-10-20T04:33:13.655Z,53.66
2023-10-20T04:34:13.648Z,51.40
2023-10-20T04:35:20.992Z,53.17
2023-10-20T04:36:13.625Z,54.14
2023-10-20T04:37:13.639Z,53.17
2023-10-20T04:38:13.523Z,50.60
2023-10-20T04:39:13.623Z,53.82
2023-10-20T04:40:13.523Z,51.40
2023-10-20T04:41:13.495Z,51.40
2023-10-20T04:42:13.484Z,52.53
2023-10-20T04:43:13.390Z,48.02
2023-10-20T04:44:13.576Z,51.24
2023-10-20T04:50:29.403Z,54.14
2023-10-20T04:51:29.107Z,52.85
2023-10-20T04:52:29.150Z,53.66
2023-10-20T04:53:29.025Z,53.82
2023-10-20T04:54:28.999Z,48.66
2023-10-20T04:55:28.970Z,50.60
2023-10-20T04:56:29.082Z,55.75
2023-10-20T04:57:28.956Z,56.24
2023-10-20T04:58:28.938Z,52.53
2023-10-20T04:59:29.005Z,53.50
2023-10-20T05:00:28.911Z,53.66
2023-10-20T05:01:37.382Z,52.05
2023-10-20T05:02:29.000Z,53.98
2023-10-20T05:03:29.106Z,52.05
2023-10-20T05:04:29.082Z,50.60
2023-10-20T05:05:30.106Z,51.08
2023-10-20T05:06:30.089Z,47.21
2023-10-20T05:07:30.044Z,56.24
2023-10-20T05:09:03.992Z,53.33
2023-10-20T05:09:30.354Z,55.27
2023-10-20T05:11:02.697Z,52.21
2023-10-20T05:11:30.153Z,50.60
2023-10-20T05:17:10.170Z,55.59
2023-10-20T05:18:11.462Z,51.56
2023-10-20T05:19:10.241Z,55.11
2023-10-20T05:20:10.170Z,51.08
2023-10-20T05:21:10.041Z,52.21
2023-10-20T05:24:58.191Z,53.17
2023-10-20T05:25:58.078Z,55.11
2023-10-20T05:26:58.159Z,55.59
2023-10-20T05:27:58.022Z,56.40
2023-10-20T05:28:57.958Z,54.79
2023-10-20T05:29:58.018Z,51.88
2023-10-20T05:30:57.990Z,55.27
2023-10-20T05:31:59.258Z,53.01
2023-10-20T05:32:59.455Z,52.69
2023-10-20T05:33:59.160Z,52.21
2023-10-20T05:34:59.177Z,53.98
2023-10-20T05:35:59.101Z,52.69
2023-10-20T05:36:59.093Z,50.11
2023-10-20T05:37:59.141Z,55.75
2023-10-20T05:38:59.137Z,54.30
2023-10-20T05:39:59.102Z,54.79
2023-10-20T05:40:59.100Z,53.01
2023-10-20T05:42:02.254Z,53.33
2023-10-20T05:42:59.069Z,52.53
2023-10-20T05:47:15.545Z,54.62
2023-10-20T05:48:24.271Z,55.11
2023-10-20T05:49:15.636Z,55.27
2023-10-20T06:00:03.398Z,54.46
2023-10-20T06:01:03.375Z,52.69
2023-10-20T06:02:02.307Z,49.95
2023-10-20T06:03:04.583Z,51.56
2023-10-20T06:07:17.741Z,51.56
2023-10-20T06:08:27.773Z,50.92
2023-10-20T06:15:25.329Z,50.60
2023-10-20T06:16:25.363Z,54.14
2023-10-20T06:17:25.392Z,53.98
2023-10-20T06:18:36.213Z,50.60
2023-10-20T06:19:59.060Z,53.17
2023-10-20T06:20:28.031Z,50.76
2023-10-20T06:21:26.478Z,53.98
2023-10-20T06:23:00.093Z,49.79
2023-10-20T06:23:59.042Z,51.56
2023-10-20T06:24:26.568Z,50.43
2023-10-20T06:52:10.780Z,50.27
2023-10-20T07:00:19.139Z,48.66
2023-10-20T07:01:19.842Z,55.43
2023-10-20T07:11:38.012Z,54.30
2023-10-20T07:16:18.478Z,55.75
2023-10-20T07:17:21.302Z,54.79
2023-10-20T07:32:27.440Z,53.17
2023-10-20T07:33:19.732Z,54.62
2023-10-20T07:34:20.072Z,55.11
2023-10-20T07:45:50.632Z,57.20
2023-10-20T07:46:50.603Z,56.88
2023-10-20T07:47:50.717Z,57.85
2023-10-20T07:48:50.647Z,57.04
2023-10-20T07:49:50.458Z,56.88
2023-10-20T07:50:50.590Z,56.88
2023-10-20T07:51:50.384Z,57.52
2023-10-20T07:52:50.384Z,56.24
2023-10-20T07:58:15.176Z,57.36
2023-10-20T07:59:16.484Z,57.36
2023-10-20T08:00:18.577Z,57.85
2023-10-20T08:01:16.229Z,58.81
2023-10-20T08:02:16.637Z,59.14
2023-10-20T08:03:16.285Z,57.85
2023-10-20T08:04:16.456Z,58.17
2023-10-20T08:05:17.272Z,57.36
2023-10-20T08:06:29.061Z,57.52
2023-10-20T08:07:18.157Z,57.36
2023-10-20T08:08:16.137Z,58.17
2023-10-20T08:09:16.082Z,57.69
2023-10-20T08:10:16.043Z,57.69
2023-10-20T08:11:16.158Z,57.85
2023-10-20T08:12:16.168Z,56.72
2023-10-20T08:13:16.007Z,56.56
2023-10-20T08:14:16.069Z,56.07
2023-10-20T08:15:16.034Z,56.88
2023-10-20T08:16:17.361Z,57.52
2023-10-20T08:20:31.351Z,56.24
2023-10-20T08:21:31.319Z,56.72
2023-10-20T08:22:31.666Z,57.20
2023-10-20T08:23:31.225Z,56.56
2023-10-20T08:24:31.208Z,57.69
2023-10-20T08:25:32.354Z,57.69
2023-10-20T08:26:32.413Z,56.56
2023-10-20T08:27:32.328Z,56.24
2023-10-20T08:28:32.343Z,58.17
2023-10-20T08:29:32.551Z,57.20
2023-10-20T08:30:32.270Z,57.52
2023-10-20T08:31:32.381Z,57.85
2023-10-20T08:32:32.413Z,56.24
2023-10-20T08:33:32.318Z,56.88
2023-10-20T08:34:32.256Z,57.52
2023-10-20T08:35:32.347Z,57.04
2023-10-20T08:36:32.344Z,56.40
2023-10-20T08:37:32.262Z,56.40
2023-10-20T08:38:32.286Z,55.75
2023-10-20T08:40:04.919Z,57.04
2023-10-20T08:40:37.048Z,57.85
2023-10-20T08:41:33.435Z,56.88
2023-10-20T08:42:32.164Z,56.24
2023-10-20T08:43:32.243Z,55.27
2023-10-20T08:44:32.192Z,58.49
2023-10-20T08:45:32.261Z,56.07
2023-10-20T08:46:32.177Z,55.91
2023-10-20T08:47:32.160Z,56.40
2023-10-20T08:48:32.119Z,57.85
2023-10-20T08:49:32.298Z,57.20
2023-10-20T08:50:32.145Z,56.56
2023-10-20T08:51:32.187Z,56.88
2023-10-20T08:52:32.066Z,54.95
2023-10-20T08:53:32.186Z,57.52
2023-10-20T08:54:32.096Z,57.20
2023-10-20T08:55:32.056Z,55.27
2023-10-20T08:56:32.312Z,56.72
2023-10-20T08:57:32.023Z,54.30
2023-10-20T08:58:32.034Z,56.24
2023-10-20T08:59:32.114Z,56.40
2023-10-20T09:00:32.218Z,56.40
2023-10-20T09:01:35.642Z,55.91
2023-10-20T09:03:05.623Z,54.46
2023-10-20T09:03:34.092Z,56.24
2023-10-20T09:04:32.433Z,54.95
2023-10-20T09:05:32.067Z,56.88
2023-10-20T09:06:32.078Z,56.88
2023-10-20T09:07:31.973Z,58.33
2023-10-20T09:08:31.962Z,54.95
2023-10-20T09:09:31.914Z,56.24
2023-10-20T09:10:31.941Z,57.04
2023-10-20T09:11:32.549Z,56.40
2023-10-20T09:12:31.876Z,54.95
2023-10-20T09:13:31.875Z,56.24
2023-10-20T09:14:31.925Z,56.40
2023-10-20T09:15:31.922Z,53.17
2023-10-20T09:16:31.833Z,54.79
2023-10-20T09:17:32.919Z,56.24
2023-10-20T09:18:32.032Z,54.30
2023-10-20T09:20:06.827Z,57.36
2023-10-20T09:20:32.258Z,55.11
2023-10-20T09:21:31.925Z,56.24
2023-10-20T09:22:31.919Z,55.43
2023-10-20T09:23:32.105Z,54.30
2023-10-20T09:24:31.809Z,53.98
2023-10-20T09:25:32.003Z,53.98
2023-10-20T09:26:31.958Z,54.46
2023-10-20T09:27:31.783Z,54.30
2023-10-20T09:28:31.790Z,54.95
2023-10-20T09:29:31.939Z,56.07
2023-10-20T09:30:31.769Z,54.62
2023-10-20T09:31:31.711Z,55.11
2023-10-20T09:32:31.753Z,53.33
2023-10-20T09:33:31.900Z,54.79
2023-10-20T09:34:31.714Z,54.46
2023-10-20T09:35:31.681Z,55.43
2023-10-20T09:36:31.728Z,54.79
2023-10-20T09:37:31.659Z,54.14
2023-10-20T09:38:31.926Z,56.24
2023-10-20T09:39:31.625Z,52.21
2023-10-20T09:40:31.617Z,52.85
2023-10-20T09:41:31.684Z,53.50
2023-10-20T09:42:32.199Z,51.40
2023-10-20T09:43:32.578Z,54.14
2023-10-20T09:44:31.680Z,53.66
2023-10-20T09:45:31.560Z,52.69
2023-10-20T09:46:31.752Z,55.59
2023-10-20T09:47:31.638Z,54.30
2023-10-20T09:48:31.578Z,53.50
2023-10-20T09:49:31.533Z,55.59
2023-10-20T09:50:31.842Z,54.30
2023-10-20T09:51:31.541Z,53.33
2023-10-20T09:52:31.460Z,55.27
2023-10-20T09:53:31.613Z,54.79
2023-10-20T09:54:31.521Z,54.30
2023-10-20T09:55:31.512Z,53.50
2023-10-20T09:57:05.686Z,55.75
2023-10-20T09:57:31.729Z,53.82
2023-10-20T09:58:31.625Z,56.40
2023-10-20T09:59:31.826Z,53.17
2023-10-20T10:00:31.454Z,54.30
2023-10-20T10:01:31.484Z,54.46
2023-10-20T10:02:31.704Z,53.17
2023-10-20T10:04:04.365Z,54.95
2023-10-20T10:04:31.413Z,56.88
2023-10-20T10:05:31.645Z,56.56
2023-10-20T10:06:31.557Z,54.79
2023-10-20T10:07:31.362Z,55.75
2023-10-20T10:08:31.348Z,54.30
2023-10-20T10:09:31.294Z,54.30
2023-10-20T10:10:31.490Z,55.91
2023-10-20T10:11:31.358Z,56.24
2023-10-20T10:12:31.261Z,56.07
2023-10-20T10:13:31.223Z,54.30
2023-10-20T10:14:31.358Z,55.75
2023-10-20T10:15:31.276Z,54.62
2023-10-20T10:16:31.328Z,53.01
2023-10-20T10:18:03.879Z,55.27
2023-10-20T10:18:31.515Z,56.40
2023-10-20T10:19:31.495Z,56.07
2023-10-20T10:20:31.310Z,54.30
2023-10-20T10:21:31.179Z,55.43
2023-10-20T10:22:31.187Z,55.75
2023-10-20T10:23:31.229Z,55.75
2023-10-20T10:24:31.186Z,57.36
2023-10-20T10:25:31.150Z,58.17
2023-10-20T10:26:31.227Z,56.88
2023-10-20T10:27:31.376Z,54.95
2023-10-20T10:28:31.130Z,53.50
2023-10-20T10:29:32.391Z,53.33
2023-10-20T10:30:31.140Z,52.69
2023-10-20T10:31:31.175Z,53.17
2023-10-20T10:32:31.231Z,56.07
2023-10-20T10:33:31.430Z,55.27
2023-10-20T10:34:31.101Z,54.79
2023-10-20T10:35:31.123Z,54.14
2023-10-20T10:36:31.056Z,55.59
2023-10-20T10:37:31.155Z,53.50
2023-10-20T10:38:32.379Z,55.11
2023-10-20T10:39:33.192Z,53.66
2023-10-20T10:40:31.079Z,54.30
2023-10-20T10:41:31.043Z,51.56
2023-10-20T10:43:04.703Z,52.21
2023-10-20T10:43:31.024Z,55.75
2023-10-20T10:44:31.169Z,52.69
2023-10-20T10:45:31.120Z,55.75
2023-10-20T10:46:31.070Z,53.98
2023-10-20T10:47:31.146Z,55.11
2023-10-20T10:48:31.295Z,55.75
2023-10-20T10:49:30.951Z,54.79
2023-10-20T10:50:30.886Z,56.07
2023-10-20T10:51:30.936Z,53.17
2023-10-20T10:52:30.958Z,53.98
2023-10-20T10:53:31.001Z,54.79
2023-10-20T10:55:03.647Z,54.46
2023-10-20T10:55:57.467Z,54.30
2023-10-20T10:57:05.105Z,55.43
2023-10-20T10:57:31.018Z,55.91
2023-10-20T11:01:48.513Z,52.69
2023-10-20T11:02:40.206Z,53.98
2023-10-20T11:08:27.751Z,54.46
2023-10-20T11:09:19.028Z,54.62
2023-10-20T11:10:20.262Z,52.53
2023-10-20T11:14:29.728Z,54.14
2023-10-20T11:15:39.256Z,55.27
2023-10-20T11:17:03.389Z,53.98
